sensor_id;sensor_type;location;lat;lon;timestamp;P1;P2;P0
54553;PMS5003;40450;55.848;-3.572;2023-03-01T00:01:38;0;0;
54553;PMS5003;40450;55.848;-3.572;2023-03-01T00:04:09;1;1;
54553;PMS5003;40450;55.848;-3.572;2023-03-01T00:06:39;0;0;
54553;PMS5003;40450;55.848;-3.572;2023-03-01T00:09:10;1;1;
54553;PMS5003;40450;55.848;-3.572;2023-03-01T00:11:40;1;1;
54553;PMS5003;40450;55.848;-3.572;2023-03-01T00:14:11;0;0;
54553;PMS5003;40450;55.848;-3.572;2023-03-01T00:16:42;1;1;
54553;PMS5003;40450;55.848;-3.572;2023-03-01T00:19:12;0;0;
54553;PMS5003;40450;55.848;-3.572;2023-03-01T00:21:42;1;1;
54553;PMS5003;40450;55.848;-3.572;2023-03-01T00:24:13;0;0;
54553;PMS5003;40450;55.848;-3.572;2023-03-01T00:26:43;1;0;
54553;PMS5003;40450;55.848;-3.572;2023-03-01T00:29:13;0;0;
54553;PMS5003;40450;55.848;-3.572;2023-03-01T00:31:44;0;0;
54553;PMS5003;40450;55.848;-3.572;2023-03-01T00:34:14;0;0;
54553;PMS5003;40450;55.848;-3.572;2023-03-01T00:36:45;1;1;
54553;PMS5003;40450;55.848;-3.572;2023-03-01T00:39:15;0;0;
54553;PMS5003;40450;55.848;-3.572;2023-03-01T00:41:45;0;0;
54553;PMS5003;40450;55.848;-3.572;2023-03-01T00:44:16;0;0;
54553;PMS5003;40450;55.848;-3.572;2023-03-01T00:46:47;0;0;
54553;PMS5003;40450;55.848;-3.572;2023-03-01T00:49:17;0;0;
54553;PMS5003;40450;55.848;-3.572;2023-03-01T00:51:47;0;0;
54553;PMS5003;40450;55.848;-3.572;2023-03-01T00:54:18;0;0;
54553;PMS5003;40450;55.848;-3.572;2023-03-01T00:56:48;0;0;
54553;PMS5003;40450;55.848;-3.572;2023-03-01T00:59:19;0;0;
54553;PMS5003;40450;55.848;-3.572;2023-03-01T01:01:54;0;0;
54553;PMS5003;40450;55.848;-3.572;2023-03-01T01:04:20;0;0;
54553;PMS5003;40450;55.848;-3.572;2023-03-01T01:06:50;0;0;
54553;PMS5003;40450;55.848;-3.572;2023-03-01T01:09:20;0;0;
54553;PMS5003;40450;55.848;-3.572;2023-03-01T01:11:51;0;0;
54553;PMS5003;40450;55.848;-3.572;2023-03-01T01:14:21;0;0;
54553;PMS5003;40450;55.848;-3.572;2023-03-01T01:16:51;1;1;
54553;PMS5003;40450;55.848;-3.572;2023-03-01T01:19:22;0;0;
54553;PMS5003;40450;55.848;-3.572;2023-03-01T01:21:52;1;1;
54553;PMS5003;40450;55.848;-3.572;2023-03-01T01:24:23;0;0;
54553;PMS5003;40450;55.848;-3.572;2023-03-01T01:26:53;0;0;
54553;PMS5003;40450;55.848;-3.572;2023-03-01T01:29:24;0;0;
54553;PMS5003;40450;55.848;-3.572;2023-03-01T01:31:54;1;1;
54553;PMS5003;40450;55.848;-3.572;2023-03-01T01:34:25;0;0;
54553;PMS5003;40450;55.848;-3.572;2023-03-01T01:36:55;2;0;
54553;PMS5003;40450;55.848;-3.572;2023-03-01T01:39:25;1;1;
54553;PMS5003;40450;55.848;-3.572;2023-03-01T01:41:56;0;0;
54553;PMS5003;40450;55.848;-3.572;2023-03-01T01:44:27;0;0;
54553;PMS5003;40450;55.848;-3.572;2023-03-01T01:46:58;0;0;
54553;PMS5003;40450;55.848;-3.572;2023-03-01T01:49:29;0;0;
54553;PMS5003;40450;55.848;-3.572;2023-03-01T01:52:00;0;0;
54553;PMS5003;40450;55.848;-3.572;2023-03-01T01:54:29;0;0;
54553;PMS5003;40450;55.848;-3.572;2023-03-01T01:56:59;0;0;
54553;PMS5003;40450;55.848;-3.572;2023-03-01T01:59:29;0;0;
54553;PMS5003;40450;55.848;-3.572;2023-03-01T02:02:00;0;0;
54553;PMS5003;40450;55.848;-3.572;2023-03-01T02:04:30;0;0;
54553;PMS5003;40450;55.848;-3.572;2023-03-01T02:07:01;0;0;
54553;PMS5003;40450;55.848;-3.572;2023-03-01T02:09:32;0;0;
54553;PMS5003;40450;55.848;-3.572;2023-03-01T02:12:01;1;0;
54553;PMS5003;40450;55.848;-3.572;2023-03-01T02:14:32;0;0;
54553;PMS5003;40450;55.848;-3.572;2023-03-01T02:17:02;0;0;
54553;PMS5003;40450;55.848;-3.572;2023-03-01T02:19:36;0;0;
54553;PMS5003;40450;55.848;-3.572;2023-03-01T02:22:05;0;0;
54553;PMS5003;40450;55.848;-3.572;2023-03-01T02:24:35;0;0;
54553;PMS5003;40450;55.848;-3.572;2023-03-01T02:27:04;0;0;
54553;PMS5003;40450;55.848;-3.572;2023-03-01T02:29:34;1;1;
54553;PMS5003;40450;55.848;-3.572;2023-03-01T02:32:04;1;1;
54553;PMS5003;40450;55.848;-3.572;2023-03-01T02:34:35;0;0;
54553;PMS5003;40450;55.848;-3.572;2023-03-01T02:37:06;0;0;
54553;PMS5003;40450;55.848;-3.572;2023-03-01T02:39:36;0;0;
54553;PMS5003;40450;55.848;-3.572;2023-03-01T02:42:06;0;0;
54553;PMS5003;40450;55.848;-3.572;2023-03-01T02:44:36;0;0;
54553;PMS5003;40450;55.848;-3.572;2023-03-01T02:47:07;0;0;
54553;PMS5003;40450;55.848;-3.572;2023-03-01T02:49:37;0;0;
54553;PMS5003;40450;55.848;-3.572;2023-03-01T02:54:39;1;1;
54553;PMS5003;40450;55.848;-3.572;2023-03-01T02:57:08;1;1;
54553;PMS5003;40450;55.848;-3.572;2023-03-01T02:59:39;0;0;
54553;PMS5003;40450;55.848;-3.572;2023-03-01T03:04:40;0;0;
54553;PMS5003;40450;55.848;-3.572;2023-03-01T03:07:10;1;0;
54553;PMS5003;40450;55.848;-3.572;2023-03-01T03:09:41;0;0;
54553;PMS5003;40450;55.848;-3.572;2023-03-01T03:12:11;0;0;
54553;PMS5003;40450;55.848;-3.572;2023-03-01T03:14:42;0;0;
54553;PMS5003;40450;55.848;-3.572;2023-03-01T03:17:12;0;0;
54553;PMS5003;40450;55.848;-3.572;2023-03-01T03:19:42;0;0;
54553;PMS5003;40450;55.848;-3.572;2023-03-01T03:22:13;0;0;
54553;PMS5003;40450;55.848;-3.572;2023-03-01T03:24:43;0;0;
54553;PMS5003;40450;55.848;-3.572;2023-03-01T03:27:14;1;0;
54553;PMS5003;40450;55.848;-3.572;2023-03-01T03:29:44;0;0;
54553;PMS5003;40450;55.848;-3.572;2023-03-01T03:32:15;0;0;
54553;PMS5003;40450;55.848;-3.572;2023-03-01T03:34:45;0;0;
54553;PMS5003;40450;55.848;-3.572;2023-03-01T03:37:16;0;0;
54553;PMS5003;40450;55.848;-3.572;2023-03-01T03:39:46;1;0;
54553;PMS5003;40450;55.848;-3.572;2023-03-01T03:42:16;1;0;
54553;PMS5003;40450;55.848;-3.572;2023-03-01T03:44:47;2;2;
54553;PMS5003;40450;55.848;-3.572;2023-03-01T03:47:17;1;0;
54553;PMS5003;40450;55.848;-3.572;2023-03-01T03:49:48;0;0;
54553;PMS5003;40450;55.848;-3.572;2023-03-01T03:52:18;0;0;
54553;PMS5003;40450;55.848;-3.572;2023-03-01T03:54:49;0;0;
54553;PMS5003;40450;55.848;-3.572;2023-03-01T03:57:19;0;0;
54553;PMS5003;40450;55.848;-3.572;2023-03-01T03:59:50;0;0;
54553;PMS5003;40450;55.848;-3.572;2023-03-01T04:02:20;0;0;
54553;PMS5003;40450;55.848;-3.572;2023-03-01T04:04:50;1;1;
54553;PMS5003;40450;55.848;-3.572;2023-03-01T04:07:21;0;0;
54553;PMS5003;40450;55.848;-3.572;2023-03-01T04:09:51;0;0;
54553;PMS5003;40450;55.848;-3.572;2023-03-01T04:12:22;0;0;
54553;PMS5003;40450;55.848;-3.572;2023-03-01T04:14:52;0;0;
54553;PMS5003;40450;55.848;-3.572;2023-03-01T04:17:23;0;0;
54553;PMS5003;40450;55.848;-3.572;2023-03-01T04:19:53;0;0;
54553;PMS5003;40450;55.848;-3.572;2023-03-01T04:22:23;0;0;
54553;PMS5003;40450;55.848;-3.572;2023-03-01T04:24:54;1;1;
54553;PMS5003;40450;55.848;-3.572;2023-03-01T04:27:25;1;1;
54553;PMS5003;40450;55.848;-3.572;2023-03-01T04:29:55;0;0;
54553;PMS5003;40450;55.848;-3.572;2023-03-01T04:32:25;0;0;
54553;PMS5003;40450;55.848;-3.572;2023-03-01T04:34:55;0;0;
54553;PMS5003;40450;55.848;-3.572;2023-03-01T04:37:26;0;0;
54553;PMS5003;40450;55.848;-3.572;2023-03-01T04:39:56;0;0;
54553;PMS5003;40450;55.848;-3.572;2023-03-01T04:42:27;0;0;
54553;PMS5003;40450;55.848;-3.572;2023-03-01T04:44:57;0;0;
54553;PMS5003;40450;55.848;-3.572;2023-03-01T04:47:28;0;0;
54553;PMS5003;40450;55.848;-3.572;2023-03-01T04:49:58;0;0;
54553;PMS5003;40450;55.848;-3.572;2023-03-01T04:52:29;0;0;
54553;PMS5003;40450;55.848;-3.572;2023-03-01T04:54:59;1;1;
54553;PMS5003;40450;55.848;-3.572;2023-03-01T04:57:30;0;0;
54553;PMS5003;40450;55.848;-3.572;2023-03-01T05:00:00;0;0;
54553;PMS5003;40450;55.848;-3.572;2023-03-01T05:02:31;0;0;
54553;PMS5003;40450;55.848;-3.572;2023-03-01T05:05:01;2;0;
54553;PMS5003;40450;55.848;-3.572;2023-03-01T05:07:31;0;0;
54553;PMS5003;40450;55.848;-3.572;2023-03-01T05:10:02;0;0;
54553;PMS5003;40450;55.848;-3.572;2023-03-01T05:12:32;0;0;
54553;PMS5003;40450;55.848;-3.572;2023-03-01T05:15:03;0;0;
54553;PMS5003;40450;55.848;-3.572;2023-03-01T05:17:34;1;1;
54553;PMS5003;40450;55.848;-3.572;2023-03-01T05:20:04;0;0;
54553;PMS5003;40450;55.848;-3.572;2023-03-01T05:22:34;0;0;
54553;PMS5003;40450;55.848;-3.572;2023-03-01T05:25:05;0;0;
54553;PMS5003;40450;55.848;-3.572;2023-03-01T05:27:35;0;0;
54553;PMS5003;40450;55.848;-3.572;2023-03-01T05:30:06;0;0;
54553;PMS5003;40450;55.848;-3.572;2023-03-01T05:32:36;0;0;
54553;PMS5003;40450;55.848;-3.572;2023-03-01T05:35:07;0;0;
54553;PMS5003;40450;55.848;-3.572;2023-03-01T05:37:37;1;1;
54553;PMS5003;40450;55.848;-3.572;2023-03-01T05:40:08;0;0;
54553;PMS5003;40450;55.848;-3.572;2023-03-01T05:42:38;0;0;
54553;PMS5003;40450;55.848;-3.572;2023-03-01T05:45:09;0;0;
54553;PMS5003;40450;55.848;-3.572;2023-03-01T05:47:39;0;0;
54553;PMS5003;40450;55.848;-3.572;2023-03-01T05:50:11;1;0;
54553;PMS5003;40450;55.848;-3.572;2023-03-01T05:52:40;0;0;
54553;PMS5003;40450;55.848;-3.572;2023-03-01T05:55:10;0;0;
54553;PMS5003;40450;55.848;-3.572;2023-03-01T05:57:41;0;0;
54553;PMS5003;40450;55.848;-3.572;2023-03-01T06:00:12;0;0;
54553;PMS5003;40450;55.848;-3.572;2023-03-01T06:02:42;0;0;
54553;PMS5003;40450;55.848;-3.572;2023-03-01T06:05:13;1;1;
54553;PMS5003;40450;55.848;-3.572;2023-03-01T06:07:43;0;0;
54553;PMS5003;40450;55.848;-3.572;2023-03-01T06:10:14;0;0;
54553;PMS5003;40450;55.848;-3.572;2023-03-01T06:12:44;1;0;
54553;PMS5003;40450;55.848;-3.572;2023-03-01T06:15:15;0;0;
54553;PMS5003;40450;55.848;-3.572;2023-03-01T06:17:45;0;0;
54553;PMS5003;40450;55.848;-3.572;2023-03-01T06:20:16;0;0;
54553;PMS5003;40450;55.848;-3.572;2023-03-01T06:22:46;1;1;
54553;PMS5003;40450;55.848;-3.572;2023-03-01T06:25:17;0;0;
54553;PMS5003;40450;55.848;-3.572;2023-03-01T06:27:46;0;0;
54553;PMS5003;40450;55.848;-3.572;2023-03-01T06:30:17;0;0;
54553;PMS5003;40450;55.848;-3.572;2023-03-01T06:32:47;0;0;
54553;PMS5003;40450;55.848;-3.572;2023-03-01T06:35:18;0;0;
54553;PMS5003;40450;55.848;-3.572;2023-03-01T06:37:48;0;0;
54553;PMS5003;40450;55.848;-3.572;2023-03-01T06:40:19;2;1;
54553;PMS5003;40450;55.848;-3.572;2023-03-01T06:42:49;0;0;
54553;PMS5003;40450;55.848;-3.572;2023-03-01T06:45:20;0;0;
54553;PMS5003;40450;55.848;-3.572;2023-03-01T06:47:50;0;0;
54553;PMS5003;40450;55.848;-3.572;2023-03-01T06:50:21;0;0;
54553;PMS5003;40450;55.848;-3.572;2023-03-01T06:52:55;0;0;
54553;PMS5003;40450;55.848;-3.572;2023-03-01T06:55:21;0;0;
54553;PMS5003;40450;55.848;-3.572;2023-03-01T06:57:54;1;1;
54553;PMS5003;40450;55.848;-3.572;2023-03-01T07:00:23;0;0;
54553;PMS5003;40450;55.848;-3.572;2023-03-01T07:02:53;0;0;
54553;PMS5003;40450;55.848;-3.572;2023-03-01T07:05:23;0;0;
54553;PMS5003;40450;55.848;-3.572;2023-03-01T07:07:54;0;0;
54553;PMS5003;40450;55.848;-3.572;2023-03-01T07:10:25;0;0;
54553;PMS5003;40450;55.848;-3.572;2023-03-01T07:12:55;3;1;
54553;PMS5003;40450;55.848;-3.572;2023-03-01T07:15:26;0;0;
54553;PMS5003;40450;55.848;-3.572;2023-03-01T07:17:56;0;0;
54553;PMS5003;40450;55.848;-3.572;2023-03-01T07:20:26;0;0;
54553;PMS5003;40450;55.848;-3.572;2023-03-01T07:22:57;0;0;
54553;PMS5003;40450;55.848;-3.572;2023-03-01T07:25:27;0;0;
54553;PMS5003;40450;55.848;-3.572;2023-03-01T07:27:57;1;1;
54553;PMS5003;40450;55.848;-3.572;2023-03-01T07:30:28;0;0;
54553;PMS5003;40450;55.848;-3.572;2023-03-01T07:32:58;1;1;
54553;PMS5003;40450;55.848;-3.572;2023-03-01T07:35:29;0;0;
54553;PMS5003;40450;55.848;-3.572;2023-03-01T07:37:59;1;1;
54553;PMS5003;40450;55.848;-3.572;2023-03-01T07:40:30;0;0;
54553;PMS5003;40450;55.848;-3.572;2023-03-01T07:43:00;1;1;
54553;PMS5003;40450;55.848;-3.572;2023-03-01T07:45:31;1;1;
54553;PMS5003;40450;55.848;-3.572;2023-03-01T07:48:01;1;0;
54553;PMS5003;40450;55.848;-3.572;2023-03-01T07:50:32;0;0;
54553;PMS5003;40450;55.848;-3.572;2023-03-01T07:53:02;2;2;
54553;PMS5003;40450;55.848;-3.572;2023-03-01T07:55:32;0;0;
54553;PMS5003;40450;55.848;-3.572;2023-03-01T07:58:03;1;1;
54553;PMS5003;40450;55.848;-3.572;2023-03-01T08:00:33;1;1;
54553;PMS5003;40450;55.848;-3.572;2023-03-01T08:03:04;0;0;
54553;PMS5003;40450;55.848;-3.572;2023-03-01T08:05:34;1;1;
54553;PMS5003;40450;55.848;-3.572;2023-03-01T08:08:05;0;0;
54553;PMS5003;40450;55.848;-3.572;2023-03-01T08:10:35;0;0;
54553;PMS5003;40450;55.848;-3.572;2023-03-01T08:13:07;1;1;
54553;PMS5003;40450;55.848;-3.572;2023-03-01T08:15:36;0;0;
54553;PMS5003;40450;55.848;-3.572;2023-03-01T08:18:06;1;1;
54553;PMS5003;40450;55.848;-3.572;2023-03-01T08:20:37;2;0;
54553;PMS5003;40450;55.848;-3.572;2023-03-01T08:23:09;3;2;
54553;PMS5003;40450;55.848;-3.572;2023-03-01T08:25:43;3;3;
54553;PMS5003;40450;55.848;-3.572;2023-03-01T08:28:08;6;3;
54553;PMS5003;40450;55.848;-3.572;2023-03-01T08:30:40;1;1;
54553;PMS5003;40450;55.848;-3.572;2023-03-01T08:35:40;2;1;
54553;PMS5003;40450;55.848;-3.572;2023-03-01T08:38:10;1;1;
54553;PMS5003;40450;55.848;-3.572;2023-03-01T08:40:41;2;1;
54553;PMS5003;40450;55.848;-3.572;2023-03-01T08:43:11;3;3;
54553;PMS5003;40450;55.848;-3.572;2023-03-01T08:45:41;1;1;
54553;PMS5003;40450;55.848;-3.572;2023-03-01T08:48:12;1;1;
54553;PMS5003;40450;55.848;-3.572;2023-03-01T08:50:42;0;0;
54553;PMS5003;40450;55.848;-3.572;2023-03-01T08:53:12;2;0;
54553;PMS5003;40450;55.848;-3.572;2023-03-01T08:55:43;1;1;
54553;PMS5003;40450;55.848;-3.572;2023-03-01T08:58:13;0;0;
54553;PMS5003;40450;55.848;-3.572;2023-03-01T09:00:44;0;0;
54553;PMS5003;40450;55.848;-3.572;2023-03-01T09:03:14;0;0;
54553;PMS5003;40450;55.848;-3.572;2023-03-01T09:05:45;0;0;
54553;PMS5003;40450;55.848;-3.572;2023-03-01T09:10:46;1;0;
54553;PMS5003;40450;55.848;-3.572;2023-03-01T09:13:16;1;1;
54553;PMS5003;40450;55.848;-3.572;2023-03-01T09:15:46;1;1;
54553;PMS5003;40450;55.848;-3.572;2023-03-01T09:18:17;0;0;
54553;PMS5003;40450;55.848;-3.572;2023-03-01T09:20:47;1;1;
54553;PMS5003;40450;55.848;-3.572;2023-03-01T09:23:18;1;1;
54553;PMS5003;40450;55.848;-3.572;2023-03-01T09:25:48;0;0;
54553;PMS5003;40450;55.848;-3.572;2023-03-01T09:28:19;1;1;
54553;PMS5003;40450;55.848;-3.572;2023-03-01T09:30:49;0;0;
54553;PMS5003;40450;55.848;-3.572;2023-03-01T09:33:20;1;1;
54553;PMS5003;40450;55.848;-3.572;2023-03-01T09:38:20;1;1;
54553;PMS5003;40450;55.848;-3.572;2023-03-01T09:40:51;3;2;
54553;PMS5003;40450;55.848;-3.572;2023-03-01T09:43:23;0;0;
54553;PMS5003;40450;55.848;-3.572;2023-03-01T09:45:53;2;2;
54553;PMS5003;40450;55.848;-3.572;2023-03-01T09:48:23;1;1;
54553;PMS5003;40450;55.848;-3.572;2023-03-01T09:50:53;2;0;
54553;PMS5003;40450;55.848;-3.572;2023-03-01T09:53:25;1;1;
54553;PMS5003;40450;55.848;-3.572;2023-03-01T09:55:54;0;0;
54553;PMS5003;40450;55.848;-3.572;2023-03-01T09:58:29;0;0;
54553;PMS5003;40450;55.848;-3.572;2023-03-01T10:00:55;2;2;
54553;PMS5003;40450;55.848;-3.572;2023-03-01T10:03:26;1;1;
54553;PMS5003;40450;55.848;-3.572;2023-03-01T10:05:57;1;1;
54553;PMS5003;40450;55.848;-3.572;2023-03-01T10:08:28;2;2;
54553;PMS5003;40450;55.848;-3.572;2023-03-01T10:10:56;1;1;
54553;PMS5003;40450;55.848;-3.572;2023-03-01T10:13:29;4;1;
54553;PMS5003;40450;55.848;-3.572;2023-03-01T10:15:59;2;2;
54553;PMS5003;40450;55.848;-3.572;2023-03-01T10:18:28;2;2;
54553;PMS5003;40450;55.848;-3.572;2023-03-01T10:20:59;1;1;
54553;PMS5003;40450;55.848;-3.572;2023-03-01T10:23:30;1;1;
54553;PMS5003;40450;55.848;-3.572;2023-03-01T10:26:07;2;2;
54553;PMS5003;40450;55.848;-3.572;2023-03-01T10:28:30;1;1;
54553;PMS5003;40450;55.848;-3.572;2023-03-01T10:31:00;1;1;
54553;PMS5003;40450;55.848;-3.572;2023-03-01T10:33:31;2;2;
54553;PMS5003;40450;55.848;-3.572;2023-03-01T10:36:01;4;2;
54553;PMS5003;40450;55.848;-3.572;2023-03-01T10:38:33;3;3;
54553;PMS5003;40450;55.848;-3.572;2023-03-01T10:41:04;2;2;
54553;PMS5003;40450;55.848;-3.572;2023-03-01T10:43:40;1;1;
54553;PMS5003;40450;55.848;-3.572;2023-03-01T10:46:02;1;1;
54553;PMS5003;40450;55.848;-3.572;2023-03-01T10:48:33;2;2;
54553;PMS5003;40450;55.848;-3.572;2023-03-01T10:51:05;3;2;
54553;PMS5003;40450;55.848;-3.572;2023-03-01T10:53:34;1;1;
54553;PMS5003;40450;55.848;-3.572;2023-03-01T10:56:05;2;2;
54553;PMS5003;40450;55.848;-3.572;2023-03-01T10:58:35;1;1;
54553;PMS5003;40450;55.848;-3.572;2023-03-01T11:01:06;2;2;
54553;PMS5003;40450;55.848;-3.572;2023-03-01T11:03:36;2;2;
54553;PMS5003;40450;55.848;-3.572;2023-03-01T11:06:19;1;1;
54553;PMS5003;40450;55.848;-3.572;2023-03-01T11:08:38;1;1;
54553;PMS5003;40450;55.848;-3.572;2023-03-01T11:13:37;4;2;
54553;PMS5003;40450;55.848;-3.572;2023-03-01T11:16:10;1;1;
54553;PMS5003;40450;55.848;-3.572;2023-03-01T11:18:38;2;1;
54553;PMS5003;40450;55.848;-3.572;2023-03-01T11:21:08;1;1;
54553;PMS5003;40450;55.848;-3.572;2023-03-01T11:23:39;1;1;
54553;PMS5003;40450;55.848;-3.572;2023-03-01T11:26:09;0;0;
54553;PMS5003;40450;55.848;-3.572;2023-03-01T11:28:40;0;0;
54553;PMS5003;40450;55.848;-3.572;2023-03-01T11:31:10;0;0;
54553;PMS5003;40450;55.848;-3.572;2023-03-01T11:33:41;0;0;
54553;PMS5003;40450;55.848;-3.572;2023-03-01T11:36:15;1;1;
54553;PMS5003;40450;55.848;-3.572;2023-03-01T11:38:41;0;0;
54553;PMS5003;40450;55.848;-3.572;2023-03-01T11:41:12;0;0;
54553;PMS5003;40450;55.848;-3.572;2023-03-01T11:43:46;0;0;
54553;PMS5003;40450;55.848;-3.572;2023-03-01T11:48:46;1;1;
54553;PMS5003;40450;55.848;-3.572;2023-03-01T11:51:15;1;1;
54553;PMS5003;40450;55.848;-3.572;2023-03-01T11:53:49;2;2;
54553;PMS5003;40450;55.848;-3.572;2023-03-01T11:56:17;1;1;
54553;PMS5003;40450;55.848;-3.572;2023-03-01T11:58:51;4;3;
54553;PMS5003;40450;55.848;-3.572;2023-03-01T12:01:19;6;6;
54553;PMS5003;40450;55.848;-3.572;2023-03-01T12:03:51;4;4;
54553;PMS5003;40450;55.848;-3.572;2023-03-01T12:06:21;5;4;
54553;PMS5003;40450;55.848;-3.572;2023-03-01T12:08:47;4;4;
54553;PMS5003;40450;55.848;-3.572;2023-03-01T12:11:20;2;2;
54553;PMS5003;40450;55.848;-3.572;2023-03-01T12:13:51;5;5;
54553;PMS5003;40450;55.848;-3.572;2023-03-01T12:16:20;4;4;
54553;PMS5003;40450;55.848;-3.572;2023-03-01T12:18:55;2;2;
54553;PMS5003;40450;55.848;-3.572;2023-03-01T12:21:21;1;1;
54553;PMS5003;40450;55.848;-3.572;2023-03-01T12:26:20;2;2;
54553;PMS5003;40450;55.848;-3.572;2023-03-01T12:28:52;4;4;
54553;PMS5003;40450;55.848;-3.572;2023-03-01T12:31:29;4;4;
54553;PMS5003;40450;55.848;-3.572;2023-03-01T12:33:51;4;2;
54553;PMS5003;40450;55.848;-3.572;2023-03-01T12:36:25;4;4;
54553;PMS5003;40450;55.848;-3.572;2023-03-01T12:38:56;2;2;
54553;PMS5003;40450;55.848;-3.572;2023-03-01T12:43:56;2;2;
54553;PMS5003;40450;55.848;-3.572;2023-03-01T12:46:26;2;2;
54553;PMS5003;40450;55.848;-3.572;2023-03-01T12:48:56;1;1;
54553;PMS5003;40450;55.848;-3.572;2023-03-01T12:51:24;0;0;
54553;PMS5003;40450;55.848;-3.572;2023-03-01T12:53:54;0;0;
54553;PMS5003;40450;55.848;-3.572;2023-03-01T12:56:25;0;0;
54553;PMS5003;40450;55.848;-3.572;2023-03-01T12:58:57;0;0;
54553;PMS5003;40450;55.848;-3.572;2023-03-01T13:01:27;1;1;
54553;PMS5003;40450;55.848;-3.572;2023-03-01T13:03:59;1;1;
54553;PMS5003;40450;55.848;-3.572;2023-03-01T13:06:28;0;0;
54553;PMS5003;40450;55.848;-3.572;2023-03-01T13:08:58;0;0;
54553;PMS5003;40450;55.848;-3.572;2023-03-01T13:11:27;1;1;
54553;PMS5003;40450;55.848;-3.572;2023-03-01T13:21:29;0;0;
54553;PMS5003;40450;55.848;-3.572;2023-03-01T13:23:58;0;0;
54553;PMS5003;40450;55.848;-3.572;2023-03-01T13:26:29;1;1;
54553;PMS5003;40450;55.848;-3.572;2023-03-01T13:28:59;8;8;
54553;PMS5003;40450;55.848;-3.572;2023-03-01T13:34:00;1;1;
54553;PMS5003;40450;55.848;-3.572;2023-03-01T13:39:02;1;1;
54553;PMS5003;40450;55.848;-3.572;2023-03-01T13:44:02;1;1;
54553;PMS5003;40450;55.848;-3.572;2023-03-01T13:46:32;1;1;
54553;PMS5003;40450;55.848;-3.572;2023-03-01T13:49:03;2;2;
54553;PMS5003;40450;55.848;-3.572;2023-03-01T13:51:33;0;0;
54553;PMS5003;40450;55.848;-3.572;2023-03-01T13:54:03;0;0;
54553;PMS5003;40450;55.848;-3.572;2023-03-01T13:56:36;0;0;
54553;PMS5003;40450;55.848;-3.572;2023-03-01T13:59:05;1;0;
54553;PMS5003;40450;55.848;-3.572;2023-03-01T14:01:35;1;1;
54553;PMS5003;40450;55.848;-3.572;2023-03-01T14:06:35;1;1;
54553;PMS5003;40450;55.848;-3.572;2023-03-01T14:09:09;0;0;
54553;PMS5003;40450;55.848;-3.572;2023-03-01T14:14:10;2;2;
54553;PMS5003;40450;55.848;-3.572;2023-03-01T14:16:39;1;1;
54553;PMS5003;40450;55.848;-3.572;2023-03-01T14:19:12;0;0;
54553;PMS5003;40450;55.848;-3.572;2023-03-01T14:21:38;1;1;
54553;PMS5003;40450;55.848;-3.572;2023-03-01T14:26:39;1;1;
54553;PMS5003;40450;55.848;-3.572;2023-03-01T14:31:40;3;3;
54553;PMS5003;40450;55.848;-3.572;2023-03-01T14:34:16;1;1;
54553;PMS5003;40450;55.848;-3.572;2023-03-01T14:36:40;0;0;
54553;PMS5003;40450;55.848;-3.572;2023-03-01T14:39:16;1;1;
54553;PMS5003;40450;55.848;-3.572;2023-03-01T14:41:41;1;1;
54553;PMS5003;40450;55.848;-3.572;2023-03-01T14:44:12;0;0;
54553;PMS5003;40450;55.848;-3.572;2023-03-01T14:46:43;0;0;
54553;PMS5003;40450;55.848;-3.572;2023-03-01T14:49:13;0;0;
54553;PMS5003;40450;55.848;-3.572;2023-03-01T14:51:46;1;1;
54553;PMS5003;40450;55.848;-3.572;2023-03-01T14:54:20;0;0;
54553;PMS5003;40450;55.848;-3.572;2023-03-01T14:56:45;1;1;
54553;PMS5003;40450;55.848;-3.572;2023-03-01T14:59:14;0;0;
54553;PMS5003;40450;55.848;-3.572;2023-03-01T15:01:45;0;0;
54553;PMS5003;40450;55.848;-3.572;2023-03-01T15:04:15;0;0;
54553;PMS5003;40450;55.848;-3.572;2023-03-01T15:06:46;2;1;
54553;PMS5003;40450;55.848;-3.572;2023-03-01T15:09:16;2;1;
54553;PMS5003;40450;55.848;-3.572;2023-03-01T15:11:46;1;0;
54553;PMS5003;40450;55.848;-3.572;2023-03-01T15:14:25;2;2;
54553;PMS5003;40450;55.848;-3.572;2023-03-01T15:16:47;1;1;
54553;PMS5003;40450;55.848;-3.572;2023-03-01T15:19:18;1;1;
54553;PMS5003;40450;55.848;-3.572;2023-03-01T15:21:48;2;2;
54553;PMS5003;40450;55.848;-3.572;2023-03-01T15:24:20;1;1;
54553;PMS5003;40450;55.848;-3.572;2023-03-01T15:26:50;0;0;
54553;PMS5003;40450;55.848;-3.572;2023-03-01T15:29:21;1;1;
54553;PMS5003;40450;55.848;-3.572;2023-03-01T15:31:54;0;0;
54553;PMS5003;40450;55.848;-3.572;2023-03-01T15:34:21;0;0;
54553;PMS5003;40450;55.848;-3.572;2023-03-01T15:36:51;2;1;
54553;PMS5003;40450;55.848;-3.572;2023-03-01T15:39:27;1;1;
54553;PMS5003;40450;55.848;-3.572;2023-03-01T15:41:51;0;0;
54553;PMS5003;40450;55.848;-3.572;2023-03-01T15:44:25;0;0;
54553;PMS5003;40450;55.848;-3.572;2023-03-01T15:46:52;1;0;
54553;PMS5003;40450;55.848;-3.572;2023-03-01T15:49:25;0;0;
54553;PMS5003;40450;55.848;-3.572;2023-03-01T15:51:54;1;1;
54553;PMS5003;40450;55.848;-3.572;2023-03-01T15:54:24;0;0;
54553;PMS5003;40450;55.848;-3.572;2023-03-01T15:56:54;2;2;
54553;PMS5003;40450;55.848;-3.572;2023-03-01T15:59:24;0;0;
54553;PMS5003;40450;55.848;-3.572;2023-03-01T16:01:54;1;1;
54553;PMS5003;40450;55.848;-3.572;2023-03-01T16:04:25;1;1;
54553;PMS5003;40450;55.848;-3.572;2023-03-01T16:06:55;1;1;
54553;PMS5003;40450;55.848;-3.572;2023-03-01T16:09:26;0;0;
54553;PMS5003;40450;55.848;-3.572;2023-03-01T16:11:56;1;1;
54553;PMS5003;40450;55.848;-3.572;2023-03-01T16:14:27;3;1;
54553;PMS5003;40450;55.848;-3.572;2023-03-01T16:16:57;1;1;
54553;PMS5003;40450;55.848;-3.572;2023-03-01T16:19:28;2;2;
54553;PMS5003;40450;55.848;-3.572;2023-03-01T16:21:58;4;2;
54553;PMS5003;40450;55.848;-3.572;2023-03-01T16:24:28;1;1;
54553;PMS5003;40450;55.848;-3.572;2023-03-01T16:26:59;2;2;
54553;PMS5003;40450;55.848;-3.572;2023-03-01T16:29:29;0;0;
54553;PMS5003;40450;55.848;-3.572;2023-03-01T16:32:00;1;1;
54553;PMS5003;40450;55.848;-3.572;2023-03-01T16:34:30;1;1;
54553;PMS5003;40450;55.848;-3.572;2023-03-01T16:37:01;2;2;
54553;PMS5003;40450;55.848;-3.572;2023-03-01T16:39:31;2;2;
54553;PMS5003;40450;55.848;-3.572;2023-03-01T16:42:01;4;4;
54553;PMS5003;40450;55.848;-3.572;2023-03-01T16:44:33;5;5;
54553;PMS5003;40450;55.848;-3.572;2023-03-01T16:47:02;4;4;
54553;PMS5003;40450;55.848;-3.572;2023-03-01T16:49:33;5;5;
54553;PMS5003;40450;55.848;-3.572;2023-03-01T16:52:03;5;3;
54553;PMS5003;40450;55.848;-3.572;2023-03-01T16:54:34;3;3;
54553;PMS5003;40450;55.848;-3.572;2023-03-01T16:57:04;3;3;
54553;PMS5003;40450;55.848;-3.572;2023-03-01T16:59:35;2;2;
54553;PMS5003;40450;55.848;-3.572;2023-03-01T17:02:05;4;4;
54553;PMS5003;40450;55.848;-3.572;2023-03-01T17:04:35;2;2;
54553;PMS5003;40450;55.848;-3.572;2023-03-01T17:07:06;5;4;
54553;PMS5003;40450;55.848;-3.572;2023-03-01T17:09:36;2;2;
54553;PMS5003;40450;55.848;-3.572;2023-03-01T17:12:07;3;3;
54553;PMS5003;40450;55.848;-3.572;2023-03-01T17:14:37;1;1;
54553;PMS5003;40450;55.848;-3.572;2023-03-01T17:17:07;3;2;
54553;PMS5003;40450;55.848;-3.572;2023-03-01T17:19:37;5;3;
54553;PMS5003;40450;55.848;-3.572;2023-03-01T17:22:08;4;3;
54553;PMS5003;40450;55.848;-3.572;2023-03-01T17:24:39;4;3;
54553;PMS5003;40450;55.848;-3.572;2023-03-01T17:27:09;2;2;
54553;PMS5003;40450;55.848;-3.572;2023-03-01T17:29:39;5;5;
54553;PMS5003;40450;55.848;-3.572;2023-03-01T17:32:10;4;4;
54553;PMS5003;40450;55.848;-3.572;2023-03-01T17:34:40;2;2;
54553;PMS5003;40450;55.848;-3.572;2023-03-01T17:37:11;3;3;
54553;PMS5003;40450;55.848;-3.572;2023-03-01T17:39:41;2;2;
54553;PMS5003;40450;55.848;-3.572;2023-03-01T17:42:11;3;3;